Terminal Aerodrome Forecast
Issued by NWS Topeka, KS

Home | Current Version | Previous Version | Text Only | Print | Product List | Glossary Off
Versions: 1 2 3 4 5 6 7 8 9 10 11 12 13

000
FTUS43 KTOP 181120
TAFTOP
TAF
KTOP 181120Z 1812/1912 30016G27KT P6SM SCT040
     FM181400 30018G26KT P6SM BKN025
     FM181700 30021G30KT P6SM SCT035
     FM190100 33012KT P6SM FEW150
     FM190600 32004KT P6SM FEW250=

USA.gov is the U.S. government's official web portal to all federal, state and local government web resources and services.